Kenton, OH

8:03 AM EDT on September 18, 2014 (GMT -0400)
Marion Municipal | Change Station
CLOSE
Current Station
Airport
Location: Marion,
Elevation: 994 ft
Nearby Weather Stations

Elev 994 ft 40.62 °N, 83.06 °W | Updated 10 minutes ago

Fog
Fog
43 °F
Feels Like 43 °F
N
0
Wind Variable Wind from North

Today
High -- | Low -- °F
--% Chance of Precip.
Yesterday
High -- | Low -- °F
Precip. -- in
7:18 AM 7:38 PM
Waning Crescent, 27% visible
Pressure 30.09 in
Visibility 0.2 miles
Clouds
Dew Point 42 °F
Humidity 97%
Rainfall 0.00 in
Snow Depth Not available.
UV Not available.
Pollen 4.80 out of 12
Air Quality Not available.
Flu Activity Not available.
METAR KMNN 181153Z AUTO 00000KT 1/4SM FG VV003 06/06 A3008 RMK AO2 SLP188 T00610056 10106 20061 51013 TSNO

More Conditions Fewer Conditions

Pressure 30.09 in
Visibility 0.2 miles
Clouds
Dew Point 42 °F
Humidity 97%
Rainfall 0.00 in
Snow Depth Not available.
UV Not available.
Pollen 4.80 out of 12
Air Quality Not available.
Flu Activity Not available.
METAR KMNN 181153Z AUTO 00000KT 1/4SM FG VV003 06/06 A3008 RMK AO2 SLP188 T00610056 10106 20061 51013 TSNO

More Conditions Fewer Conditions

10-Day Weather Forecast

Almanac

Astronomy

Sep. 18, 2014 Rise Set
Actual Time 7:18 AM EDT 7:38 PM EDT
Civil Twilight 6:50 AM EDT 8:05 PM EDT
Nautical Twilight 6:18 AM EDT 8:37 PM EDT
Astronomical Twilight 5:45 AM EDT 9:10 PM EDT
Moon 2:07 AM EDT 4:29 PM EDT
Length of Visible Light 13h 15m
Length of Day
12h 20m
Tomorrow will be 2m 41s shorter.
Waning Crescent, 27% of the Moon is Illuminated
Today
Waning Crescent
Sep 24
New
Oct 1
First Quarter
Oct 8
Full
Oct 15
Last Quarter

Today's Extremes

State Highs State Lows

Community

WunderPhotos

Upload Photos

1,754,330 photos uploaded!

Nearby

Snow Depth

Station Depth Elevation
No new snow has been reported.

Earthquake Activity

City Distance Mag. Time & Date
No recent earthquake activity has been reported nearby.
Minimum magnitude displayed is 2.5.

Coastal Water Temperatures

Place Temperature
No Stations Reporting

Nearby Weather Stations